Time;durP1;ratioP1;P1;durP2;ratioP2;P2;SDS_P1;SDS_P2;PMS_P1;PMS_P2;Temp;Humidity;BMP_temperature;BMP_pressure;BME280_temperature;BME280_humidity;BME280_pressure;Samples;Min_cycle;Max_cycle;Signal;HPM_P1;HPM_P2
2021/11/06 00:00:40;;;;;;;32.80;14.87;;;5.60;98.50;;;;;;4945051;28;20189;-77
2021/11/06 00:03:06;;;;;;;33.43;15.40;;;5.60;98.50;;;;;;4948461;29;20471;-77
2021/11/06 00:05:33;;;;;;;33.37;16.70;;;5.60;98.50;;;;;;4956995;28;20562;-76
2021/11/06 00:07:59;;;;;;;35.33;16.00;;;5.60;98.40;;;;;;4953764;28;20419;-77
2021/11/06 00:10:25;;;;;;;38.80;16.07;;;5.50;98.40;;;;;;4957584;28;20415;-77
2021/11/06 00:12:52;;;;;;;35.07;17.10;;;5.50;98.50;;;;;;4957742;28;21027;-76
2021/11/06 00:15:18;;;;;;;34.80;16.70;;;5.50;98.60;;;;;;4957273;28;20471;-77
2021/11/06 00:17:44;;;;;;;36.00;16.40;;;5.50;98.60;;;;;;4957196;28;20458;-76
2021/11/06 00:20:12;;;;;;;39.33;17.23;;;5.40;98.70;;;;;;4957380;28;20773;-77
2021/11/06 00:22:39;;;;;;;37.83;17.07;;;5.40;98.60;;;;;;4943690;29;20468;-76
2021/11/06 00:25:06;;;;;;;47.93;20.60;;;5.40;98.70;;;;;;4938214;29;20923;-76
2021/11/06 00:27:33;;;;;;;44.60;18.57;;;5.30;98.70;;;;;;4957166;28;20474;-76
2021/11/06 00:29:59;;;;;;;43.90;18.77;;;5.30;98.70;;;;;;4955349;29;20427;-76
2021/11/06 00:32:24;;;;;;;40.83;17.30;;;5.30;98.80;;;;;;4956772;29;20602;-76
2021/11/06 00:34:50;;;;;;;49.03;19.07;;;5.20;98.80;;;;;;4956575;28;20204;-76
2021/11/06 00:37:17;;;;;;;34.60;16.57;;;5.20;98.90;;;;;;4957130;29;20239;-75
2021/11/06 00:39:42;;;;;;;40.30;17.20;;;5.20;99.00;;;;;;4971518;28;20172;-77
2021/11/06 00:42:08;;;;;;;35.40;16.90;;;5.20;98.90;;;;;;4957278;28;21021;-76
2021/11/06 00:44:34;;;;;;;36.33;17.43;;;5.20;98.60;;;;;;4957144;28;20199;-76
2021/11/06 00:47:00;;;;;;;34.77;16.10;;;5.20;98.70;;;;;;4956199;28;20210;-77
2021/11/06 00:49:26;;;;;;;42.10;17.03;;;5.20;98.70;;;;;;4957900;28;20419;-77
2021/11/06 00:51:52;;;;;;;39.00;17.30;;;5.20;98.70;;;;;;4957946;28;20430;-77
2021/11/06 00:54:18;;;;;;;29.33;15.10;;;5.20;98.60;;;;;;4955200;28;20949;-77
2021/11/06 00:56:44;;;;;;;41.60;16.93;;;5.10;98.60;;;;;;4959370;28;20211;-77
2021/11/06 00:59:10;;;;;;;45.87;18.30;;;5.20;98.70;;;;;;4962329;28;20191;-77
2021/11/06 01:01:37;;;;;;;32.20;15.60;;;5.10;98.70;;;;;;4960346;29;20204;-76
2021/11/06 01:04:04;;;;;;;40.23;19.70;;;5.10;98.70;;;;;;4961592;28;20459;-76
2021/11/06 01:06:30;;;;;;;38.47;18.60;;;5.00;98.70;;;;;;4943395;29;20433;-77
2021/11/06 01:08:56;;;;;;;36.40;16.73;;;5.00;98.70;;;;;;4953762;29;20514;-77
2021/11/06 01:11:21;;;;;;;40.00;17.20;;;5.00;98.70;;;;;;4957067;28;20473;-77
2021/11/06 01:13:47;;;;;;;42.60;19.67;;;5.00;98.70;;;;;;4943517;28;20188;-77
2021/11/06 01:16:13;;;;;;;32.60;16.67;;;4.90;98.60;;;;;;4957037;28;20613;-77
2021/11/06 01:18:39;;;;;;;38.33;16.83;;;4.90;98.70;;;;;;4957152;28;20207;-77
2021/11/06 01:21:05;;;;;;;40.97;18.37;;;4.90;98.70;;;;;;4956860;28;20239;-77
2021/11/06 01:23:30;;;;;;;40.33;17.13;;;4.90;98.60;;;;;;4955290;29;20416;-77
2021/11/06 01:25:57;;;;;;;39.07;16.03;;;4.80;98.60;;;;;;4956432;28;20738;-77
2021/11/06 01:28:23;;;;;;;35.27;16.70;;;4.80;98.60;;;;;;4958068;28;21017;-75
2021/11/06 01:30:49;;;;;;;36.13;17.33;;;4.80;98.70;;;;;;4957768;28;20419;-76
2021/11/06 01:33:14;;;;;;;39.00;18.10;;;4.90;98.70;;;;;;4956105;28;20648;-76
2021/11/06 01:35:40;;;;;;;40.70;16.40;;;4.80;98.70;;;;;;4955565;28;20450;-77
2021/11/06 01:38:06;;;;;;;38.37;16.47;;;4.80;98.70;;;;;;4953788;29;20475;-75
2021/11/06 01:40:32;;;;;;;47.83;20.40;;;4.80;98.70;;;;;;4936593;29;20431;-76
2021/11/06 01:42:58;;;;;;;41.50;19.00;;;4.80;98.70;;;;;;4944258;29;20214;-76
2021/11/06 01:45:25;;;;;;;36.87;15.60;;;4.70;98.60;;;;;;4960859;28;20506;-77
2021/11/06 01:47:51;;;;;;;38.27;19.10;;;4.60;98.60;;;;;;4960749;28;20234;-77
2021/11/06 01:50:19;;;;;;;38.30;16.92;;;4.60;98.60;;;;;;4959198;29;20841;-75
2021/11/06 01:52:45;;;;;;;36.57;16.60;;;4.60;98.60;;;;;;4962034;28;20199;-77
2021/11/06 01:55:11;;;;;;;32.90;16.60;;;4.60;98.80;;;;;;4964125;28;20446;-76
2021/11/06 01:57:38;;;;;;;41.57;17.13;;;4.60;98.80;;;;;;4957204;28;20435;-76
2021/11/06 02:00:10;;;;;;;43.87;19.10;;;4.70;98.70;;;;;;4953492;29;20420;-77
2021/11/06 02:02:36;;;;;;;35.27;16.03;;;4.60;98.80;;;;;;4955756;28;20881;-76
2021/11/06 02:05:01;;;;;;;37.00;17.27;;;4.50;98.80;;;;;;4956077;28;20448;-76
2021/11/06 02:07:27;;;;;;;34.83;16.47;;;4.50;98.80;;;;;;4954868;29;20510;-77
2021/11/06 02:09:53;;;;;;;32.33;16.20;;;4.50;98.90;;;;;;4956234;28;20420;-78
2021/11/06 02:12:19;;;;;;;38.43;17.20;;;4.50;98.80;;;;;;4956494;28;20651;-77
2021/11/06 02:14:45;;;;;;;33.60;14.47;;;4.50;98.90;;;;;;4955845;28;20262;-77
2021/11/06 02:17:10;;;;;;;32.37;15.70;;;4.50;98.80;;;;;;4957807;28;20291;-77
2021/11/06 02:19:36;;;;;;;32.80;15.50;;;4.40;98.70;;;;;;4955667;28;20423;-76
2021/11/06 02:22:03;;;;;;;32.67;16.67;;;4.40;98.60;;;;;;4954822;28;20222;-76
2021/11/06 02:24:29;;;;;;;35.87;17.20;;;4.40;98.50;;;;;;4954081;28;20522;-77
2021/11/06 02:26:55;;;;;;;33.60;16.03;;;4.40;98.60;;;;;;4953045;28;20454;-77
2021/11/06 02:29:21;;;;;;;39.20;17.03;;;4.40;98.50;;;;;;4954571;28;20486;-75
2021/11/06 02:31:47;;;;;;;34.40;16.27;;;4.50;98.60;;;;;;4953343;29;20423;-77
2021/11/06 02:34:13;;;;;;;40.40;16.93;;;4.50;98.50;;;;;;4952159;29;20431;-77
2021/11/06 02:36:40;;;;;;;31.90;15.77;;;4.40;98.60;;;;;;4954353;28;20470;-76
2021/11/06 02:39:07;;;;;;;34.70;15.07;;;4.40;98.60;;;;;;4954451;28;20973;-77
2021/11/06 02:41:33;;;;;;;37.33;16.10;;;4.40;98.50;;;;;;4953394;28;20465;-77
2021/11/06 02:44:10;;;;;;;32.50;16.20;;;4.50;98.40;;;;;;4954508;28;20415;-77
2021/11/06 02:46:37;;;;;;;36.60;17.67;;;4.40;98.20;;;;;;4948868;28;20452;-77
2021/11/06 02:49:05;;;;;;;38.37;18.43;;;4.40;98.30;;;;;;4945551;29;20435;-76
2021/11/06 02:51:31;;;;;;;39.20;18.13;;;4.40;98.30;;;;;;4951688;29;20459;-76
2021/11/06 02:53:57;;;;;;;36.77;17.73;;;4.40;98.30;;;;;;4953605;28;20463;-76
2021/11/06 02:56:27;;;;;;;40.43;18.87;;;4.40;98.30;;;;;;4945064;28;20487;-76
2021/11/06 02:58:53;;;;;;;40.17;18.00;;;4.40;98.30;;;;;;4953101;28;20463;-76
2021/11/06 03:01:21;;;;;;;43.67;20.93;;;4.40;98.30;;;;;;4943411;28;20431;-76
2021/11/06 03:03:47;;;;;;;46.30;20.00;;;4.40;98.30;;;;;;4953722;28;20849;-76
2021/11/06 03:06:13;;;;;;;35.80;15.70;;;4.40;98.20;;;;;;4952738;28;20527;-77
2021/11/06 03:08:39;;;;;;;30.10;14.10;;;4.40;98.20;;;;;;4946736;28;20508;-76
2021/11/06 03:11:04;;;;;;;39.43;15.60;;;4.40;98.20;;;;;;4956057;28;20187;-76
2021/11/06 03:13:32;;;;;;;29.57;15.10;;;4.40;98.20;;;;;;4959665;28;20415;-75
2021/11/06 03:15:57;;;;;;;33.77;16.40;;;4.30;98.10;;;;;;4955362;28;20245;-77
2021/11/06 03:18:23;;;;;;;33.57;15.07;;;4.30;98.00;;;;;;4960002;28;20474;-76
2021/11/06 03:20:50;;;;;;;33.27;14.67;;;4.30;97.90;;;;;;4955483;28;20184;-76
2021/11/06 03:23:16;;;;;;;27.20;14.13;;;4.30;97.80;;;;;;4960149;28;20702;-76
2021/11/06 03:25:43;;;;;;;34.17;16.20;;;4.30;97.70;;;;;;4953188;28;20439;-76
2021/11/06 03:28:09;;;;;;;36.87;16.53;;;4.20;97.50;;;;;;4960587;28;20800;-76
2021/11/06 03:30:35;;;;;;;30.87;14.80;;;4.10;97.30;;;;;;4951283;28;20466;-75
2021/11/06 03:33:01;;;;;;;32.23;15.67;;;4.00;97.30;;;;;;4958521;29;20438;-75
2021/11/06 03:35:27;;;;;;;31.70;15.60;;;4.00;97.40;;;;;;4948098;28;20454;-75
2021/11/06 03:37:52;;;;;;;35.67;16.27;;;4.00;97.50;;;;;;4960179;28;20215;-76
2021/11/06 03:40:19;;;;;;;32.47;15.03;;;4.10;97.40;;;;;;4955146;28;20686;-76
2021/11/06 03:42:46;;;;;;;33.07;16.40;;;4.10;97.30;;;;;;4960427;28;20206;-76
2021/11/06 03:45:13;;;;;;;35.92;15.82;;;4.00;97.30;;;;;;4957891;28;20451;-77
2021/11/06 03:47:39;;;;;;;34.60;16.80;;;4.00;97.30;;;;;;4960156;28;20190;-75
2021/11/06 03:50:08;;;;;;;40.10;19.97;;;4.00;97.40;;;;;;4954478;28;20193;-77
2021/11/06 03:52:34;;;;;;;39.20;18.00;;;3.90;97.40;;;;;;4961942;28;20430;-76
2021/11/06 03:55:00;;;;;;;40.50;18.20;;;3.80;97.50;;;;;;4953563;28;20216;-75
2021/11/06 03:57:26;;;;;;;42.83;21.27;;;3.90;97.60;;;;;;4958818;29;20466;-76
2021/11/06 03:59:52;;;;;;;39.63;19.33;;;3.80;97.60;;;;;;4953591;28;20448;-77
2021/11/06 04:02:18;;;;;;;48.80;21.60;;;3.80;97.70;;;;;;4955896;29;20295;-76
2021/11/06 04:04:43;;;;;;;35.47;17.57;;;3.70;97.80;;;;;;4960560;28;20179;-76
2021/11/06 04:07:09;;;;;;;42.17;17.97;;;3.70;97.90;;;;;;4953823;28;20820;-76
2021/11/06 04:09:35;;;;;;;39.73;18.80;;;3.60;97.80;;;;;;4967102;29;20602;-76
2021/11/06 04:12:01;;;;;;;35.93;16.47;;;3.40;97.80;;;;;;4957593;28;20523;-76
2021/11/06 04:14:27;;;;;;;39.97;17.50;;;3.40;98.00;;;;;;4965069;28;20187;-76
2021/11/06 04:16:53;;;;;;;36.42;17.80;;;3.40;98.10;;;;;;4959085;28;20223;-76
2021/11/06 04:19:19;;;;;;;35.35;16.77;;;3.40;98.20;;;;;;4948996;28;20271;-75
2021/11/06 04:21:45;;;;;;;31.97;16.87;;;3.30;98.30;;;;;;4959158;28;20299;-76
2021/11/06 04:24:11;;;;;;;38.70;18.00;;;3.20;98.40;;;;;;4959431;28;20545;-76
2021/11/06 04:26:37;;;;;;;37.97;18.93;;;3.20;98.50;;;;;;4959517;28;20447;-75
2021/11/06 04:29:02;;;;;;;36.87;17.47;;;3.20;98.60;;;;;;4951485;29;20439;-76
2021/11/06 04:31:28;;;;;;;35.47;17.40;;;3.20;98.60;;;;;;4959956;28;20239;-74
2021/11/06 04:33:54;;;;;;;38.83;18.10;;;3.10;98.70;;;;;;4956731;28;20199;-76
2021/11/06 04:36:19;;;;;;;38.27;19.00;;;3.10;98.70;;;;;;4961486;28;20211;-76
2021/11/06 04:38:45;;;;;;;39.03;18.60;;;3.10;98.70;;;;;;4960974;28;20184;-77
2021/11/06 04:41:11;;;;;;;42.70;19.30;;;3.00;98.80;;;;;;4961053;28;20563;-76
2021/11/06 04:43:38;;;;;;;38.20;18.37;;;3.00;98.90;;;;;;4954011;28;20184;-76
2021/11/06 04:46:05;;;;;;;36.42;17.27;;;3.00;98.90;;;;;;4959852;28;20207;-76
2021/11/06 04:48:31;;;;;;;41.78;18.20;;;3.00;99.00;;;;;;4960174;28;20176;-76
2021/11/06 04:50:57;;;;;;;41.30;18.40;;;3.00;99.00;;;;;;4951840;29;20622;-76
2021/11/06 04:53:29;;;;;;;40.50;18.00;;;3.00;99.10;;;;;;4956495;28;20938;-76
2021/11/06 04:55:55;;;;;;;37.97;18.05;;;2.90;99.00;;;;;;4964385;28;20642;-76
2021/11/06 04:58:20;;;;;;;33.30;16.67;;;2.90;99.10;;;;;;4968784;28;20188;-76
2021/11/06 05:00:46;;;;;;;39.30;19.60;;;3.00;99.20;;;;;;4959555;28;20180;-76
2021/11/06 05:03:14;;;;;;;43.00;18.40;;;2.90;99.20;;;;;;4956826;28;20200;-76
2021/11/06 05:05:41;;;;;;;40.10;19.35;;;2.90;99.20;;;;;;4954517;28;20238;-77
2021/11/06 05:08:06;;;;;;;34.72;16.17;;;2.90;99.20;;;;;;4954044;29;20184;-76
2021/11/06 05:10:32;;;;;;;35.37;18.90;;;2.80;99.10;;;;;;4956483;28;20550;-76
2021/11/06 05:12:58;;;;;;;30.10;15.43;;;2.80;99.10;;;;;;4956276;28;20203;-76
2021/11/06 05:15:24;;;;;;;38.20;17.43;;;2.80;99.10;;;;;;4956058;28;20915;-75
2021/11/06 05:17:52;;;;;;;35.20;17.80;;;2.80;99.10;;;;;;4956314;28;20211;-74
2021/11/06 05:20:18;;;;;;;42.72;17.88;;;2.70;99.10;;;;;;4952272;28;20514;-76
2021/11/06 05:22:44;;;;;;;35.25;16.50;;;2.70;99.10;;;;;;4955995;28;20199;-76
2021/11/06 05:25:10;;;;;;;37.30;18.60;;;2.80;99.10;;;;;;4956490;28;20215;-77
2021/11/06 05:27:36;;;;;;;34.50;17.23;;;2.80;99.20;;;;;;4955727;29;20431;-76
2021/11/06 05:30:08;;;;;;;38.60;17.70;;;2.70;99.10;;;;;;4951420;28;20208;-76
2021/11/06 05:32:35;;;;;;;39.17;17.10;;;2.80;99.20;;;;;;4950289;28;20165;-76
2021/11/06 05:35:02;;;;;;;37.42;17.25;;;2.80;99.30;;;;;;4947901;28;20694;-76
2021/11/06 05:37:28;;;;;;;31.15;15.00;;;2.90;99.40;;;;;;4955373;28;20184;-76
2021/11/06 05:39:54;;;;;;;37.80;15.90;;;3.00;99.30;;;;;;4944783;29;20732;-75
2021/11/06 05:42:20;;;;;;;35.20;15.97;;;3.00;99.30;;;;;;4949119;29;20468;-75
2021/11/06 05:44:45;;;;;;;38.43;16.60;;;3.00;99.30;;;;;;4953931;28;20927;-76
2021/11/06 05:47:11;;;;;;;30.93;14.23;;;3.00;99.40;;;;;;4955106;28;20188;-77
2021/11/06 05:49:37;;;;;;;29.23;15.03;;;3.10;99.40;;;;;;4955322;28;20558;-76
2021/11/06 05:52:04;;;;;;;28.53;14.27;;;3.00;99.10;;;;;;4954902;28;20430;-75
2021/11/06 05:54:30;;;;;;;25.00;13.10;;;2.80;98.90;;;;;;4950882;28;20429;-75
2021/11/06 05:56:57;;;;;;;26.80;13.20;;;2.70;98.70;;;;;;4955019;28;20204;-75
2021/11/06 05:59:22;;;;;;;35.08;14.88;;;2.60;98.50;;;;;;4954017;29;20666;-75
2021/11/06 06:01:49;;;;;;;31.00;13.63;;;2.60;98.50;;;;;;4951684;28;20262;-75
2021/11/06 06:04:14;;;;;;;25.63;13.50;;;2.60;98.30;;;;;;4954499;28;20435;-75
2021/11/06 06:06:40;;;;;;;25.87;12.67;;;2.50;98.30;;;;;;4955238;28;20196;-76
2021/11/06 06:09:06;;;;;;;28.47;12.77;;;2.50;98.30;;;;;;4955304;28;20211;-75
2021/11/06 06:11:33;;;;;;;23.90;12.07;;;2.50;98.20;;;;;;4955292;28;20659;-75
2021/11/06 06:13:59;;;;;;;23.60;11.57;;;2.50;98.20;;;;;;4951581;28;20424;-76
2021/11/06 06:16:26;;;;;;;28.92;13.45;;;2.60;98.10;;;;;;4952520;28;20247;-75
2021/11/06 06:18:52;;;;;;;20.95;11.65;;;2.60;98.00;;;;;;4951939;28;20197;-76
2021/11/06 06:21:18;;;;;;;29.77;13.38;;;2.60;98.00;;;;;;4953496;29;20184;-75
2021/11/06 06:23:44;;;;;;;30.43;12.37;;;2.50;97.90;;;;;;4951360;28;20778;-76
2021/11/06 06:26:10;;;;;;;25.23;12.40;;;2.50;97.90;;;;;;4950523;28;20444;-76
2021/11/06 06:28:37;;;;;;;27.77;12.82;;;2.50;97.90;;;;;;4952124;28;20183;-76
2021/11/06 06:31:03;;;;;;;25.10;12.55;;;2.40;98.00;;;;;;4943164;29;20690;-76
2021/11/06 06:33:30;;;;;;;27.17;13.48;;;2.50;98.00;;;;;;4953785;28;20188;-75
2021/11/06 06:35:56;;;;;;;33.65;13.40;;;2.40;98.00;;;;;;4955521;28;20670;-76
2021/11/06 06:38:21;;;;;;;31.92;13.75;;;2.40;98.00;;;;;;4961205;29;20196;-76
2021/11/06 06:40:47;;;;;;;28.00;13.70;;;2.40;98.10;;;;;;4956310;28;20259;-76
2021/11/06 06:43:13;;;;;;;25.83;12.67;;;2.40;98.20;;;;;;4947637;28;20239;-75
2021/11/06 06:45:39;;;;;;;28.20;12.97;;;2.30;98.30;;;;;;4949287;28;20279;-76
2021/11/06 06:48:04;;;;;;;27.03;13.07;;;2.40;98.40;;;;;;4953525;29;20274;-76
2021/11/06 06:50:30;;;;;;;25.13;12.17;;;2.30;98.40;;;;;;4949580;28;20184;-77
2021/11/06 06:52:56;;;;;;;28.23;14.63;;;2.30;98.50;;;;;;4953284;28;20487;-76
2021/11/06 06:55:22;;;;;;;34.10;13.10;;;2.30;98.60;;;;;;4953335;28;21016;-76
2021/11/06 06:57:48;;;;;;;37.03;14.40;;;2.30;98.70;;;;;;4954540;28;20179;-76
2021/11/06 07:00:15;;;;;;;27.10;12.48;;;2.40;98.80;;;;;;4947200;29;20594;-75
2021/11/06 07:02:42;;;;;;;23.92;10.95;;;2.50;98.80;;;;;;4951775;28;20214;-77
2021/11/06 07:05:08;;;;;;;26.33;11.80;;;2.60;98.80;;;;;;4942141;29;20205;-76
2021/11/06 07:07:35;;;;;;;29.50;13.15;;;2.50;98.80;;;;;;4949192;29;20204;-77
2021/11/06 07:10:00;;;;;;;26.33;12.63;;;2.50;98.70;;;;;;4945501;28;20189;-77
2021/11/06 07:12:26;;;;;;;27.93;11.83;;;2.50;98.60;;;;;;4949424;29;20188;-75
2021/11/06 07:14:53;;;;;;;28.80;12.20;;;2.60;98.70;;;;;;4951726;28;20462;-77
2021/11/06 07:17:19;;;;;;;30.92;11.45;;;2.60;98.70;;;;;;4953744;29;20238;-76
2021/11/06 07:19:45;;;;;;;27.10;12.20;;;2.70;98.70;;;;;;4945689;28;20664;-77
2021/11/06 07:22:11;;;;;;;23.50;10.27;;;2.60;98.60;;;;;;4942846;29;20460;-76
2021/11/06 07:24:37;;;;;;;24.37;12.27;;;2.60;98.60;;;;;;4955830;28;20184;-76
2021/11/06 07:27:05;;;;;;;30.90;12.47;;;2.70;98.70;;;;;;4957159;28;20180;-76
2021/11/06 07:29:31;;;;;;;31.08;12.60;;;2.60;98.60;;;;;;4949035;29;20179;-76
2021/11/06 07:31:57;;;;;;;33.80;12.25;;;2.60;98.70;;;;;;4954328;29;20731;-75
2021/11/06 07:34:23;;;;;;;28.77;12.90;;;2.60;98.70;;;;;;4945154;29;20200;-76
2021/11/06 07:36:50;;;;;;;31.87;13.50;;;2.60;98.70;;;;;;4951109;28;20453;-76
2021/11/06 07:39:16;;;;;;;31.65;13.07;;;2.60;98.80;;;;;;4952584;28;20215;-76
2021/11/06 07:41:42;;;;;;;30.35;13.32;;;2.60;98.80;;;;;;4950420;28;20599;-76
2021/11/06 07:44:09;;;;;;;25.88;13.05;;;2.60;98.90;;;;;;4944253;29;20187;-76
2021/11/06 07:46:35;;;;;;;47.03;14.07;;;2.60;99.00;;;;;;4950173;28;20224;-76
2021/11/06 07:49:01;;;;;;;35.00;13.90;;;2.70;99.00;;;;;;4946198;29;20198;-75
2021/11/06 07:51:28;;;;;;;42.13;11.80;;;2.70;99.10;;;;;;4947509;28;20424;-75
2021/11/06 07:53:54;;;;;;;28.85;12.25;;;2.80;99.10;;;;;;4948980;29;20188;-76
2021/11/06 07:56:20;;;;;;;31.50;12.10;;;3.00;99.20;;;;;;4952482;28;20216;-75
2021/11/06 07:58:46;;;;;;;24.80;12.50;;;3.20;99.00;;;;;;4948232;29;20319;-75
2021/11/06 08:01:12;;;;;;;25.20;11.30;;;3.30;98.90;;;;;;4958040;28;20198;-75
2021/11/06 08:03:38;;;;;;;28.40;11.57;;;3.20;98.60;;;;;;4951979;28;20211;-76
2021/11/06 08:06:06;;;;;;;22.90;10.60;;;3.30;98.50;;;;;;4945804;28;20264;-75
2021/11/06 08:08:32;;;;;;;24.67;12.52;;;3.50;98.40;;;;;;4940151;29;20882;-74
2021/11/06 08:10:58;;;;;;;35.70;11.13;;;3.70;98.20;;;;;;4955846;29;20184;-76
2021/11/06 08:13:25;;;;;;;25.23;9.80;;;3.70;97.80;;;;;;4950745;29;20245;-76
2021/11/06 08:15:51;;;;;;;27.00;11.02;;;3.80;97.60;;;;;;4957286;28;20204;-75
2021/11/06 08:18:17;;;;;;;25.33;10.40;;;3.80;97.30;;;;;;4959283;28;20282;-76
2021/11/06 08:20:43;;;;;;;22.90;10.10;;;3.90;97.10;;;;;;4959374;28;20427;-76
2021/11/06 08:23:09;;;;;;;28.67;11.27;;;4.00;97.00;;;;;;4958620;28;20216;-76
2021/11/06 08:25:35;;;;;;;26.67;10.37;;;3.90;96.60;;;;;;4961869;28;20195;-75
2021/11/06 08:28:00;;;;;;;30.52;12.52;;;4.10;96.70;;;;;;4963637;28;20957;-76
2021/11/06 08:30:27;;;;;;;28.77;11.47;;;4.30;96.60;;;;;;4959718;28;20184;-75
2021/11/06 08:32:55;;;;;;;26.55;11.57;;;4.30;96.10;;;;;;4957375;28;20208;-76
2021/11/06 08:35:22;;;;;;;35.28;13.73;;;4.30;95.90;;;;;;4956745;28;20215;-76
2021/11/06 08:37:48;;;;;;;35.33;12.18;;;4.30;95.80;;;;;;4956971;28;20726;-75
2021/11/06 08:40:15;;;;;;;28.08;11.60;;;4.40;95.80;;;;;;4955080;28;20194;-76
2021/11/06 08:42:41;;;;;;;26.85;10.55;;;4.60;95.60;;;;;;4955659;28;20203;-75
2021/11/06 08:45:10;;;;;;;27.23;10.90;;;4.70;95.70;;;;;;4952172;28;20212;-75
2021/11/06 08:47:37;;;;;;;35.75;12.20;;;4.90;95.70;;;;;;4952322;28;20187;-75
2021/11/06 08:50:08;;;;;;;31.63;13.13;;;5.00;95.70;;;;;;4956429;28;20188;-77
2021/11/06 08:52:34;;;;;;;30.08;12.57;;;5.20;95.60;;;;;;4947950;29;20189;-77
2021/11/06 08:55:00;;;;;;;25.73;10.90;;;5.40;95.10;;;;;;4951422;28;20767;-75
2021/11/06 08:57:26;;;;;;;27.27;12.13;;;5.40;94.50;;;;;;4951406;28;20510;-77
2021/11/06 09:00:04;;;;;;;30.33;12.47;;;5.60;94.20;;;;;;4955810;28;20560;-77
2021/11/06 09:02:30;;;;;;;25.03;11.93;;;5.60;93.90;;;;;;4951200;28;20554;-76
2021/11/06 09:04:55;;;;;;;28.90;11.80;;;5.50;93.60;;;;;;4951520;28;20648;-76
2021/11/06 09:07:21;;;;;;;29.00;12.30;;;5.50;93.60;;;;;;4960504;28;20191;-76
2021/11/06 09:09:47;;;;;;;26.13;10.30;;;5.40;93.50;;;;;;4956848;28;20614;-77
2021/11/06 09:12:13;;;;;;;27.50;11.53;;;5.40;93.80;;;;;;4949346;29;20223;-77
2021/11/06 09:14:39;;;;;;;20.20;11.40;;;5.60;94.00;;;;;;4957224;28;20268;-78
2021/11/06 09:17:05;;;;;;;26.37;11.40;;;5.70;93.70;;;;;;4961030;28;20267;-76
2021/11/06 09:19:30;;;;;;;28.30;11.97;;;5.80;93.40;;;;;;4965710;28;20805;-78
2021/11/06 09:21:56;;;;;;;30.00;11.80;;;5.90;93.20;;;;;;4962986;29;20215;-76
2021/11/06 09:24:22;;;;;;;27.60;11.40;;;5.90;93.20;;;;;;4955085;29;21062;-76
2021/11/06 09:26:48;;;;;;;26.20;11.13;;;6.00;93.20;;;;;;4955652;28;20738;-78
2021/11/06 09:29:16;;;;;;;27.57;13.13;;;6.10;93.10;;;;;;4948204;28;20200;-78
2021/11/06 09:31:42;;;;;;;23.80;10.30;;;6.20;92.60;;;;;;4953247;28;20423;-77
2021/11/06 09:34:09;;;;;;;24.50;10.97;;;6.30;92.50;;;;;;4951892;29;20447;-75
2021/11/06 09:36:36;;;;;;;26.80;11.30;;;6.40;92.30;;;;;;4952346;28;20462;-77
2021/11/06 09:39:05;;;;;;;28.47;13.10;;;6.40;91.90;;;;;;4948196;29;20433;-78
2021/11/06 09:41:31;;;;;;;30.63;12.53;;;6.40;92.10;;;;;;4945560;29;20509;-78
2021/11/06 09:43:57;;;;;;;32.77;13.40;;;6.50;92.40;;;;;;4951447;28;20502;-77
2021/11/06 09:46:25;;;;;;;26.50;12.00;;;6.50;92.00;;;;;;4947683;28;20962;-76
2021/11/06 09:48:51;;;;;;;30.57;12.97;;;6.50;92.40;;;;;;4951290;28;20434;-77
2021/11/06 09:51:19;;;;;;;28.67;13.20;;;6.60;92.40;;;;;;4954355;28;20427;-75
2021/11/06 09:53:48;;;;;;;29.83;11.10;;;6.70;92.10;;;;;;4960704;28;20459;-76
2021/11/06 09:56:20;;;;;;;28.67;11.67;;;6.70;91.80;;;;;;4954902;28;20455;-75
2021/11/06 09:58:46;;;;;;;30.60;14.30;;;6.60;92.00;;;;;;4968096;29;20554;-74
2021/11/06 10:01:12;;;;;;;28.97;12.20;;;6.50;92.10;;;;;;4962281;28;20435;-77
2021/11/06 10:03:38;;;;;;;29.30;11.83;;;6.70;92.50;;;;;;4948446;29;20215;-76
2021/11/06 10:06:07;;;;;;;25.50;12.13;;;6.70;92.40;;;;;;4954438;28;20447;-77
2021/11/06 10:08:39;;;;;;;24.63;11.30;;;6.90;92.40;;;;;;4958330;29;20442;-76
2021/11/06 10:11:09;;;;;;;31.47;13.97;;;7.10;92.30;;;;;;4953876;29;20419;-77
2021/11/06 10:13:56;;;;;;;32.00;13.37;;;7.30;91.80;;;;;;4956997;28;20482;-78
2021/11/06 10:16:58;;;;;;;24.07;11.67;;;7.50;91.00;;;;;;4959472;28;20478;-77
2021/11/06 10:19:50;;;;;;;28.20;13.17;;;7.50;90.60;;;;;;4956139;28;20461;-75
2021/11/06 10:22:22;;;;;;;35.53;13.37;;;7.50;90.00;;;;;;4950784;29;20986;-77
2021/11/06 10:24:51;;;;;;;25.47;12.10;;;7.60;90.00;;;;;;4956846;28;20424;-78
2021/11/06 10:27:24;;;;;;;30.00;13.53;;;7.50;89.90;;;;;;4957677;28;20538;-76
2021/11/06 10:30:14;;;;;;;32.73;12.60;;;7.60;90.20;;;;;;4957312;28;20439;-79
2021/11/06 10:32:42;;;;;;;25.47;13.10;;;7.50;90.30;;;;;;4950547;28;20432;-75
2021/11/06 10:35:18;;;;;;;27.97;12.97;;;7.60;90.70;;;;;;4951565;29;20452;-76
2021/11/06 10:37:46;;;;;;;30.03;13.30;;;7.80;90.50;;;;;;4949931;29;20993;-78
2021/11/06 10:40:13;;;;;;;26.53;12.57;;;7.80;89.60;;;;;;4955420;28;20432;-77
2021/11/06 10:42:53;;;;;;;29.53;13.67;;;7.90;89.90;;;;;;4952412;29;20470;-77
2021/11/06 10:45:22;;;;;;;28.47;12.90;;;7.90;89.90;;;;;;4955707;28;20435;-76
2021/11/06 10:48:07;;;;;;;31.63;13.67;;;7.80;90.00;;;;;;4957180;28;20420;-77
2021/11/06 10:50:49;;;;;;;25.37;12.30;;;7.80;90.40;;;;;;4957538;28;20821;-77
2021/11/06 10:53:32;;;;;;;29.23;12.33;;;7.90;90.60;;;;;;4947852;29;20791;-76
2021/11/06 10:55:59;;;;;;;27.63;12.90;;;7.90;90.90;;;;;;4956193;28;20439;-76
2021/11/06 10:58:26;;;;;;;29.63;13.70;;;7.90;90.80;;;;;;4954967;29;20424;-76
2021/11/06 11:00:56;;;;;;;25.30;12.80;;;7.90;90.70;;;;;;4957472;28;20415;-77
2021/11/06 11:03:28;;;;;;;31.60;13.40;;;7.90;90.80;;;;;;4956488;28;20470;-77
2021/11/06 11:05:56;;;;;;;30.10;14.37;;;7.60;90.80;;;;;;4955013;28;20476;-76
2021/11/06 11:08:22;;;;;;;31.53;15.23;;;7.70;91.30;;;;;;4958059;28;20419;-75
2021/11/06 11:10:48;;;;;;;29.17;15.33;;;7.80;91.40;;;;;;4957529;28;20446;-75
2021/11/06 11:13:20;;;;;;;28.83;13.83;;;8.00;91.20;;;;;;4953394;29;20489;-78
2021/11/06 11:15:51;;;;;;;28.13;13.90;;;8.20;90.60;;;;;;4948213;28;20247;-75
2021/11/06 11:18:35;;;;;;;29.10;14.07;;;8.50;89.70;;;;;;4956194;28;20443;-77
2021/11/06 11:21:31;;;;;;;26.80;13.80;;;8.80;88.70;;;;;;4957434;28;20431;-76
2021/11/06 11:24:01;;;;;;;28.97;14.57;;;9.10;87.30;;;;;;4949137;29;20526;-76
2021/11/06 11:26:31;;;;;;;26.53;13.20;;;9.20;86.30;;;;;;4949296;28;20463;-75
2021/11/06 11:28:57;;;;;;;26.63;13.23;;;9.30;86.00;;;;;;4952541;28;21065;-77
2021/11/06 11:31:24;;;;;;;36.57;15.57;;;9.20;85.50;;;;;;4955240;28;20985;-77
2021/11/06 11:33:51;;;;;;;29.30;14.63;;;9.00;86.30;;;;;;4956665;29;20518;-76
2021/11/06 11:36:19;;;;;;;32.43;14.70;;;8.90;86.60;;;;;;4958072;28;20449;-76
2021/11/06 11:38:46;;;;;;;37.47;14.67;;;8.80;86.90;;;;;;4957916;28;20498;-76
2021/11/06 11:41:41;;;;;;;32.70;14.77;;;8.80;87.30;;;;;;4959042;28;20474;-76
2021/11/06 11:44:38;;;;;;;32.87;15.10;;;8.70;88.00;;;;;;4957984;28;20798;-76
2021/11/06 11:47:29;;;;;;;34.97;16.63;;;8.40;88.90;;;;;;4953536;29;20460;-76
2021/11/06 11:49:57;;;;;;;30.13;15.30;;;8.10;90.00;;;;;;4954316;29;20495;-76
2021/11/06 11:52:25;;;;;;;34.53;14.40;;;8.00;90.80;;;;;;4962833;28;20914;-78
2021/11/06 11:55:05;;;;;;;31.63;15.93;;;8.20;90.90;;;;;;4959674;28;20491;-75
2021/11/06 11:57:33;;;;;;;32.80;15.00;;;8.30;90.70;;;;;;4951434;29;20423;-77
2021/11/06 11:59:59;;;;;;;30.50;14.27;;;8.40;90.40;;;;;;4957890;28;20915;-77
2021/11/06 12:02:29;;;;;;;32.97;16.60;;;8.50;90.00;;;;;;4957739;28;20513;-78
2021/11/06 12:05:28;;;;;;;35.53;14.73;;;8.70;89.90;;;;;;4956671;28;20946;-77
2021/11/06 12:08:15;;;;;;;30.10;15.07;;;9.00;88.40;;;;;;4955946;29;20432;-76
2021/11/06 12:10:55;;;;;;;37.33;16.93;;;9.30;87.80;;;;;;4952941;29;20419;-77
2021/11/06 12:13:27;;;;;;;35.00;16.47;;;9.50;86.80;;;;;;4956717;28;21002;-76
2021/11/06 12:16:12;;;;;;;31.90;15.30;;;9.50;86.50;;;;;;4948487;28;20482;-77
2021/11/06 12:18:43;;;;;;;28.83;14.27;;;9.60;85.90;;;;;;4956176;28;20989;-76
2021/11/06 12:21:19;;;;;;;33.97;16.27;;;9.80;85.70;;;;;;4955756;28;20763;-77
2021/11/06 12:24:05;;;;;;;39.50;18.00;;;9.80;85.00;;;;;;4952244;28;20471;-77
2021/11/06 12:26:33;;;;;;;35.27;16.03;;;9.70;84.40;;;;;;4956322;28;20487;-76
2021/11/06 12:29:11;;;;;;;39.27;17.50;;;9.50;85.30;;;;;;4956429;28;20420;-76
2021/11/06 12:31:40;;;;;;;39.37;18.13;;;9.60;85.60;;;;;;4953033;29;20427;-77
2021/11/06 12:34:07;;;;;;;36.87;16.20;;;9.70;85.70;;;;;;4954557;28;20973;-75
2021/11/06 12:36:41;;;;;;;36.97;16.90;;;9.80;85.00;;;;;;4952802;28;20440;-76
2021/11/06 12:39:11;;;;;;;32.43;16.43;;;10.00;84.60;;;;;;4950616;29;20558;-75